createdAt,value
2019-04-22T09:40:12.136Z,1013.36
2019-04-22T09:41:06.479Z,1013.40
2019-04-22T09:42:05.130Z,1013.43
2019-04-22T09:43:05.904Z,1013.32
2019-04-22T09:44:05.650Z,1013.45
2019-04-22T09:44:59.210Z,1013.38
2019-04-22T09:46:08.608Z,1013.32
2019-04-22T09:47:07.997Z,1013.37
2019-04-22T09:48:08.784Z,1013.30
2019-04-22T09:49:06.938Z,1013.25
2019-04-22T09:50:01.430Z,1013.33
2019-04-22T09:51:03.617Z,1013.34
2019-04-22T09:52:08.549Z,1013.32
2019-04-22T09:53:02.039Z,1013.39
2019-04-22T09:54:06.013Z,1013.28
2019-04-22T09:55:10.991Z,1013.30
2019-04-22T09:56:03.831Z,1013.29
2019-04-22T09:57:01.505Z,1013.36
2019-04-22T09:58:03.151Z,1013.28
2019-04-22T09:59:05.649Z,1013.24
2019-04-22T10:00:02.275Z,1013.31
2019-04-22T10:01:03.010Z,1013.22
2019-04-22T10:02:13.319Z,1013.22
2019-04-22T10:04:00.813Z,1013.29
2019-04-22T10:06:11.915Z,1013.30
2019-04-22T10:06:59.613Z,1013.39
2019-04-22T10:08:06.692Z,1013.34
2019-04-22T10:11:06.179Z,1013.11
2019-04-22T10:12:02.064Z,1013.21
2019-04-22T10:13:08.564Z,1013.27
2019-04-22T10:13:58.707Z,1013.21
2019-04-22T10:14:59.927Z,1013.28
2019-04-22T10:16:07.675Z,1013.27
2019-04-22T10:17:04.679Z,1013.33
2019-04-22T10:18:04.866Z,1013.23
2019-04-22T10:20:01.135Z,1013.21
2019-04-22T10:21:03.616Z,1013.20
2019-04-22T10:22:01.700Z,1013.08
2019-04-22T10:22:57.453Z,1013.12
2019-04-22T10:24:07.756Z,1013.13
2019-04-22T10:25:01.715Z,1013.09
2019-04-22T10:26:02.551Z,1013.04
2019-04-22T10:26:57.097Z,1013.03
2019-04-22T10:28:07.040Z,1013.09
2019-04-22T10:29:59.885Z,1012.97
2019-04-22T10:30:52.202Z,1012.80
2019-04-22T10:32:00.852Z,1012.95
2019-04-22T10:32:56.274Z,1013.01
2019-04-22T10:33:49.665Z,1012.87
2019-04-22T10:34:42.813Z,1012.93
2019-04-22T10:35:34.514Z,1012.96
2019-04-22T10:36:35.415Z,1012.84
2019-04-22T10:37:34.290Z,1012.82
2019-04-22T10:38:34.616Z,1012.79
2019-04-22T10:39:43.219Z,1012.79
2019-04-22T10:40:34.558Z,1012.79
2019-04-22T10:41:34.597Z,1012.79
2019-04-22T10:42:33.598Z,1012.83
2019-04-22T10:43:33.145Z,1012.72
2019-04-22T10:44:33.240Z,1012.72
2019-04-22T10:45:34.372Z,1012.70
2019-04-22T10:46:33.995Z,1012.78
2019-04-22T10:47:34.074Z,1012.80
2019-04-22T10:48:32.704Z,1012.82
2019-04-22T10:49:34.005Z,1012.75
2019-04-22T10:50:34.788Z,1012.60
2019-04-22T10:51:32.748Z,1012.65
2019-04-22T10:52:32.415Z,1012.55
2019-04-22T10:53:33.302Z,1012.57
2019-04-22T10:54:33.505Z,1012.56
2019-04-22T10:55:32.078Z,1012.53
2019-04-22T10:56:32.763Z,1012.58
2019-04-22T10:57:31.932Z,1012.47
2019-04-22T10:58:32.836Z,1012.53
2019-04-22T10:59:32.308Z,1012.48
2019-04-22T11:00:31.678Z,1012.47
2019-04-22T11:01:31.766Z,1012.49
2019-04-22T11:02:31.790Z,1012.51
2019-04-22T11:03:31.349Z,1012.57
2019-04-22T11:04:32.238Z,1012.42
2019-04-22T11:05:32.317Z,1012.39
2019-04-22T11:06:33.691Z,1012.38
2019-04-22T11:07:35.966Z,1012.45
2019-04-22T11:08:38.909Z,1012.37
2019-04-22T11:09:31.050Z,1012.32
2019-04-22T11:10:44.598Z,1012.39
2019-04-22T11:11:43.935Z,1012.37
2019-04-22T11:12:34.148Z,1012.35
2019-04-22T11:13:31.613Z,1012.31
2019-04-22T11:14:30.735Z,1012.30
2019-04-22T11:15:30.732Z,1012.28
2019-04-22T11:16:30.148Z,1012.24
2019-04-22T11:17:31.427Z,1012.47
2019-04-22T11:18:29.960Z,1012.25
2019-04-22T11:19:29.938Z,1012.41
2019-04-22T11:20:29.774Z,1012.30
2019-04-22T11:21:29.683Z,1012.21
2019-04-22T11:22:33.297Z,1012.22
2019-04-22T11:23:29.483Z,1012.34
2019-04-22T11:24:30.534Z,1012.26
2019-04-22T11:25:29.921Z,1012.20
2019-04-22T11:26:29.953Z,1012.21
2019-04-22T11:27:30.558Z,1012.18
2019-04-22T11:28:29.656Z,1012.21
2019-04-22T11:29:29.899Z,1012.23
2019-04-22T11:30:30.197Z,1012.30
2019-04-22T11:31:28.752Z,1012.28
2019-04-22T11:32:28.679Z,1012.23
2019-04-22T11:33:28.529Z,1012.24
2019-04-22T11:34:29.058Z,1012.23
2019-04-22T11:35:29.578Z,1012.18
2019-04-22T11:36:30.579Z,1012.16
2019-04-22T11:37:28.276Z,1012.26
2019-04-22T11:38:28.844Z,1012.13
2019-04-22T11:39:30.776Z,1012.10
2019-04-22T11:40:34.874Z,1011.97
2019-04-22T11:41:27.899Z,1012.20
2019-04-22T11:42:28.138Z,1012.22
2019-04-22T11:43:28.466Z,1012.17
2019-04-22T11:44:27.645Z,1012.15
2019-04-22T11:45:27.371Z,1012.25
2019-04-22T11:46:27.344Z,1012.28
2019-04-22T11:47:27.479Z,1012.27
2019-04-22T11:48:27.144Z,1012.23
2019-04-22T11:49:27.896Z,1012.31
2019-04-22T11:50:27.973Z,1012.07
2019-04-22T11:51:27.581Z,1012.08
2019-04-22T11:52:26.908Z,1012.08
2019-04-22T11:53:27.011Z,1012.21
2019-04-22T11:54:26.504Z,1012.05
2019-04-22T11:55:26.839Z,1011.95
2019-04-22T11:56:27.143Z,1012.00
2019-04-22T11:57:26.205Z,1012.00
2019-04-22T11:58:26.590Z,1011.95
2019-04-22T11:59:26.830Z,1011.99
2019-04-22T12:00:27.021Z,1012.03
2019-04-22T12:01:26.672Z,1011.90
2019-04-22T12:02:27.064Z,1012.07
2019-04-22T12:03:26.889Z,1012.08
2019-04-22T12:04:25.732Z,1011.96
2019-04-22T12:05:25.975Z,1011.94
2019-04-22T12:06:26.255Z,1011.92
2019-04-22T12:07:26.610Z,1011.94
2019-04-22T12:08:25.204Z,1011.87
2019-04-22T12:09:25.695Z,1011.96
2019-04-22T12:10:33.188Z,1011.91
2019-04-22T12:11:26.160Z,1011.95
2019-04-22T12:12:25.578Z,1011.91
2019-04-22T12:13:26.053Z,1011.93
2019-04-22T12:14:25.625Z,1011.72
2019-04-22T12:15:24.735Z,1011.80
2019-04-22T12:16:25.335Z,1011.94
2019-04-22T12:17:24.359Z,1011.88
2019-04-22T12:18:24.952Z,1011.81
2019-04-22T12:19:25.044Z,1011.78
2019-04-22T12:20:25.390Z,1011.78
2019-04-22T12:21:23.861Z,1011.66
2019-04-22T12:22:24.988Z,1011.81
2019-04-22T12:23:25.051Z,1011.81
2019-04-22T12:24:24.967Z,1011.79
2019-04-22T12:25:35.083Z,1011.92
2019-04-22T12:26:25.104Z,1011.79
2019-04-22T12:27:24.795Z,1011.82
2019-04-22T12:28:23.220Z,1011.79
2019-04-22T12:29:23.081Z,1011.75
2019-04-22T12:30:23.677Z,1011.85
2019-04-22T12:31:23.764Z,1011.73
2019-04-22T12:32:23.279Z,1011.71
2019-04-22T12:33:23.499Z,1011.70
2019-04-22T12:34:23.597Z,1011.64
2019-04-22T12:35:22.496Z,1011.64
2019-04-22T12:36:22.585Z,1011.56
2019-04-22T12:37:30.711Z,1011.72
2019-04-22T12:38:23.966Z,1011.73
2019-04-22T12:39:23.226Z,1011.54
2019-04-22T12:40:33.868Z,1011.49
2019-04-22T12:41:21.910Z,1011.45
2019-04-22T12:42:21.815Z,1011.57
2019-04-22T12:43:22.664Z,1011.66
2019-04-22T12:44:22.160Z,1011.59
2019-04-22T12:45:22.445Z,1011.56
2019-04-22T12:46:21.424Z,1011.50
2019-04-22T12:47:22.195Z,1011.44
2019-04-22T12:48:21.399Z,1011.54
2019-04-22T12:49:22.439Z,1011.61
2019-04-22T12:50:27.269Z,1011.51
2019-04-22T12:51:21.021Z,1011.48
2019-04-22T12:52:26.600Z,1011.55
2019-04-22T12:53:24.310Z,1011.48
2019-04-22T12:54:21.471Z,1011.50
2019-04-22T12:55:21.690Z,1011.41
2019-04-22T12:56:21.708Z,1011.32
2019-04-22T12:57:20.662Z,1011.40
2019-04-22T12:58:20.339Z,1011.38
2019-04-22T12:59:21.436Z,1011.44
2019-04-22T13:00:20.595Z,1011.44
2019-04-22T13:01:21.135Z,1011.50
2019-04-22T13:02:20.913Z,1011.46
2019-04-22T13:03:20.376Z,1011.33
2019-04-22T13:04:21.285Z,1011.27
2019-04-22T13:05:20.109Z,1011.29
2019-04-22T13:06:19.540Z,1011.40
2019-04-22T13:07:19.942Z,1011.31
2019-04-22T13:08:19.998Z,1011.27
2019-04-22T13:09:19.528Z,1011.29
2019-04-22T13:10:20.162Z,1011.28
2019-04-22T13:11:23.940Z,1011.27
2019-04-22T13:12:19.342Z,1011.19
2019-04-22T13:13:18.887Z,1011.19
2019-04-22T13:14:19.169Z,1011.04
2019-04-22T13:15:19.981Z,1011.25
2019-04-22T13:16:18.499Z,1011.18
2019-04-22T13:17:18.955Z,1011.16
2019-04-22T13:18:28.733Z,1011.19
2019-04-22T13:19:20.803Z,1011.18
2019-04-22T13:20:20.077Z,1011.11
2019-04-22T13:21:18.570Z,1011.03
2019-04-22T13:22:19.055Z,1011.09
2019-04-22T13:23:18.045Z,1010.99
2019-04-22T13:24:19.816Z,1011.06
2019-04-22T13:25:17.694Z,1010.99
2019-04-22T13:26:18.877Z,1011.02
2019-04-22T13:27:17.426Z,1011.05
2019-04-22T13:28:18.906Z,1010.96
2019-04-22T13:29:17.247Z,1010.93
2019-04-22T13:30:18.475Z,1011.08
2019-04-22T13:31:19.391Z,1011.01
2019-04-22T13:32:16.946Z,1010.97
2019-04-22T13:33:16.990Z,1010.93
2019-04-22T13:34:21.596Z,1010.97
2019-04-22T13:35:18.532Z,1010.93
2019-04-22T13:36:19.047Z,1010.88
2019-04-22T13:37:16.994Z,1010.90
2019-04-22T13:38:17.343Z,1010.98
2019-04-22T13:39:16.886Z,1010.98
2019-04-22T13:40:16.924Z,1010.94
2019-04-22T13:41:28.265Z,1010.98
2019-04-22T13:42:19.998Z,1011.06
2019-04-22T13:43:16.761Z,1010.94
2019-04-22T13:44:16.705Z,1010.88
2019-04-22T13:45:15.808Z,1010.88
2019-04-22T13:46:16.747Z,1010.73
2019-04-22T13:47:32.463Z,1010.88
2019-04-22T13:48:35.869Z,1010.84
2019-04-22T13:49:54.037Z,1010.95
2019-04-22T13:51:45.161Z,1010.92
2019-04-22T13:52:48.649Z,1010.87
2019-04-22T13:54:01.902Z,1010.95
2019-04-22T13:55:50.270Z,1010.85
2019-04-22T13:56:37.418Z,1010.83
2019-04-22T13:57:37.086Z,1010.82
2019-04-22T13:58:26.756Z,1010.84
2019-04-22T13:59:22.998Z,1010.83
2019-04-22T14:00:14.267Z,1010.75
2019-04-22T14:01:14.611Z,1010.90
2019-04-22T14:02:14.651Z,1010.85
2019-04-22T14:03:13.929Z,1010.88
2019-04-22T14:04:14.480Z,1010.90
2019-04-22T14:05:14.841Z,1010.90
2019-04-22T14:06:13.648Z,1010.86
2019-04-22T14:07:14.631Z,1010.85
2019-04-22T14:08:14.567Z,1010.74
2019-04-22T14:09:13.716Z,1010.90
2019-04-22T14:10:14.216Z,1010.93
2019-04-22T14:11:23.309Z,1011.01
2019-04-22T14:12:15.436Z,1010.88
2019-04-22T14:13:13.932Z,1010.86
2019-04-22T14:14:12.852Z,1010.87
2019-04-22T14:15:13.828Z,1010.84
2019-04-22T14:16:13.275Z,1010.79
2019-04-22T14:17:13.184Z,1010.82
2019-04-22T14:18:12.854Z,1010.77
2019-04-22T14:19:13.928Z,1010.78
2019-04-22T14:20:13.144Z,1010.67
2019-04-22T14:21:12.498Z,1010.66
2019-04-22T14:22:13.678Z,1010.71
2019-04-22T14:23:13.652Z,1010.93
2019-04-22T14:24:13.773Z,1010.64
2019-04-22T14:25:12.657Z,1010.67
2019-04-22T14:26:13.223Z,1010.66
2019-04-22T14:27:20.734Z,1010.72
2019-04-22T14:28:16.910Z,1010.77
2019-04-22T14:29:11.490Z,1010.64
2019-04-22T14:30:12.562Z,1010.68
2019-04-22T14:31:12.545Z,1010.71
2019-04-22T14:32:17.077Z,1010.72
2019-04-22T14:33:12.164Z,1010.74
2019-04-22T14:34:12.017Z,1010.76
2019-04-22T14:35:11.209Z,1010.85
2019-04-22T14:36:11.648Z,1010.78
2019-04-22T14:37:11.880Z,1010.72
2019-04-22T14:38:12.042Z,1010.66
2019-04-22T14:39:10.418Z,1010.64
2019-04-22T14:40:11.957Z,1010.73
2019-04-22T14:41:15.750Z,1010.71
2019-04-22T14:42:28.298Z,1010.87
2019-04-22T14:43:35.119Z,1010.64
2019-04-22T14:45:44.516Z,1010.84
2019-04-22T14:46:35.163Z,1010.79
2019-04-22T14:47:32.728Z,1010.74
2019-04-22T14:48:38.781Z,1010.68
2019-04-22T14:49:28.828Z,1010.77
2019-04-22T14:50:33.609Z,1010.61
2019-04-22T14:51:27.876Z,1010.81
2019-04-22T14:52:32.929Z,1010.84
2019-04-22T14:53:30.915Z,1010.81
2019-04-22T14:54:24.192Z,1010.73
2019-04-22T14:55:15.875Z,1010.77
2019-04-22T14:56:08.758Z,1010.82
2019-04-22T14:57:08.659Z,1010.69
2019-04-22T14:58:09.014Z,1010.78
2019-04-22T14:59:09.254Z,1010.72
2019-04-22T15:00:09.436Z,1010.81
2019-04-22T15:01:08.589Z,1010.87
2019-04-22T15:02:09.661Z,1010.86
2019-04-22T15:03:08.344Z,1010.91
2019-04-22T15:04:08.871Z,1010.80
2019-04-22T15:05:08.145Z,1010.87
2019-04-22T15:06:08.398Z,1010.74
2019-04-22T15:07:08.851Z,1010.77
2019-04-22T15:08:08.818Z,1010.72
2019-04-22T15:09:08.032Z,1010.72
2019-04-22T15:10:08.241Z,1010.79
2019-04-22T15:11:08.623Z,1010.73
2019-04-22T15:12:16.502Z,1010.83
2019-04-22T15:13:07.352Z,1010.59
2019-04-22T15:14:07.657Z,1010.65
2019-04-22T15:15:06.902Z,1010.71
2019-04-22T15:16:07.759Z,1010.67
2019-04-22T15:17:06.914Z,1010.69
2019-04-22T15:18:07.891Z,1010.70
2019-04-22T15:19:07.492Z,1010.64
2019-04-22T15:20:07.703Z,1010.68
2019-04-22T15:21:06.920Z,1010.58
2019-04-22T15:22:06.211Z,1010.52
2019-04-22T15:23:06.725Z,1010.64
2019-04-22T15:24:06.614Z,1010.64
2019-04-22T15:25:05.917Z,1010.72
2019-04-22T15:26:06.507Z,1010.76
2019-04-22T15:27:06.568Z,1010.71
2019-04-22T15:28:05.770Z,1010.80
2019-04-22T15:29:05.528Z,1010.79
2019-04-22T15:30:05.730Z,1010.73
2019-04-22T15:31:05.732Z,1010.70
2019-04-22T15:32:05.343Z,1010.72
2019-04-22T15:33:05.521Z,1010.74
2019-04-22T15:34:05.034Z,1010.62
2019-04-22T15:35:04.982Z,1010.76
2019-04-22T15:36:05.757Z,1010.58
2019-04-22T15:37:06.100Z,1010.70
2019-04-22T15:38:04.773Z,1010.58
2019-04-22T15:39:05.130Z,1010.65
2019-04-22T15:40:04.715Z,1010.59
2019-04-22T15:41:05.055Z,1010.73
2019-04-22T15:42:11.758Z,1010.67
2019-04-22T15:43:04.709Z,1010.52
2019-04-22T15:44:04.122Z,1010.90
2019-04-22T15:45:05.938Z,1010.76
2019-04-22T15:46:04.015Z,1010.53
2019-04-22T15:47:04.834Z,1010.57
2019-04-22T15:48:04.149Z,1010.66
2019-04-22T15:49:04.250Z,1010.72
2019-04-22T15:50:03.857Z,1010.74
2019-04-22T15:51:04.685Z,1010.78
2019-04-22T15:52:04.683Z,1010.76
2019-04-22T15:53:04.563Z,1010.63
2019-04-22T15:54:03.608Z,1010.68
2019-04-22T15:55:03.072Z,1010.60
2019-04-22T15:56:03.067Z,1010.61
2019-04-22T15:57:02.780Z,1010.63
2019-04-22T15:58:03.755Z,1010.72
2019-04-22T15:59:09.873Z,1010.61
2019-04-22T16:00:12.017Z,1010.71
2019-04-22T16:01:11.986Z,1010.67
2019-04-22T16:02:02.713Z,1010.74
2019-04-22T16:03:06.052Z,1010.76
2019-04-22T16:04:02.856Z,1010.62
2019-04-22T16:05:02.738Z,1010.58
2019-04-22T16:06:02.130Z,1010.67
2019-04-22T16:07:03.172Z,1010.70
2019-04-22T16:08:03.248Z,1010.70
2019-04-22T16:09:02.654Z,1010.68
2019-04-22T16:10:01.882Z,1010.72
2019-04-22T16:11:02.003Z,1010.61
2019-04-22T16:12:13.653Z,1010.68
2019-04-22T16:13:09.428Z,1010.67
2019-04-22T16:14:02.117Z,1010.66
2019-04-22T16:15:03.055Z,1010.60
2019-04-22T16:16:00.912Z,1010.68
2019-04-22T16:17:00.930Z,1010.74
2019-04-22T16:18:02.928Z,1010.72
2019-04-22T16:19:00.724Z,1010.72
2019-04-22T16:20:01.584Z,1010.71
2019-04-22T16:21:00.559Z,1010.69
2019-04-22T16:22:05.578Z,1010.65
2019-04-22T16:23:01.447Z,1010.73
2019-04-22T16:24:00.384Z,1010.70
2019-04-22T16:25:00.544Z,1010.73
2019-04-22T16:26:01.048Z,1010.62
2019-04-22T16:27:00.449Z,1010.61
2019-04-22T16:28:00.616Z,1010.60
2019-04-22T16:29:01.061Z,1010.53
2019-04-22T16:29:59.536Z,1010.70
2019-04-22T16:30:59.666Z,1010.69
2019-04-22T16:31:59.334Z,1010.48
2019-04-22T16:32:59.240Z,1010.56
2019-04-22T16:34:00.402Z,1010.49
2019-04-22T16:34:59.043Z,1010.58
2019-04-22T16:35:58.945Z,1010.56
2019-04-22T16:36:58.846Z,1010.62
2019-04-22T16:37:58.840Z,1010.55
2019-04-22T16:38:58.648Z,1010.54
2019-04-22T16:39:58.933Z,1010.51
2019-04-22T16:40:58.842Z,1010.51
2019-04-22T16:41:58.355Z,1010.52
2019-04-22T16:43:01.547Z,1010.70
2019-04-22T16:43:58.679Z,1010.50
2019-04-22T16:44:59.534Z,1010.56
2019-04-22T16:45:58.093Z,1010.57
2019-04-22T16:46:57.863Z,1010.52
2019-04-22T16:47:57.972Z,1010.56
2019-04-22T16:48:57.937Z,1010.55
2019-04-22T16:49:57.570Z,1010.60
2019-04-22T16:50:58.477Z,1010.46
2019-04-22T16:51:58.407Z,1010.49
2019-04-22T16:52:57.873Z,1010.54
2019-04-22T16:53:57.993Z,1010.44
2019-04-22T16:54:57.070Z,1010.44
2019-04-22T16:55:57.176Z,1010.47
2019-04-22T16:56:57.561Z,1010.37
2019-04-22T16:57:56.838Z,1010.40
2019-04-22T16:58:56.815Z,1010.36
2019-04-22T16:59:56.599Z,1010.42
2019-04-22T17:00:56.605Z,1010.42
2019-04-22T17:01:56.730Z,1010.40
2019-04-22T17:02:56.284Z,1010.40
2019-04-22T17:03:56.645Z,1010.47
2019-04-22T17:04:57.639Z,1010.45
2019-04-22T17:05:56.030Z,1010.51
2019-04-22T17:06:57.497Z,1010.59
2019-04-22T17:07:56.337Z,1010.44
2019-04-22T17:08:57.010Z,1010.51
2019-04-22T17:09:55.690Z,1010.46
2019-04-22T17:10:55.785Z,1010.47
2019-04-22T17:11:56.118Z,1010.49
2019-04-22T17:13:03.417Z,1010.49
2019-04-22T17:13:55.261Z,1010.49
2019-04-22T17:15:01.745Z,1010.42
2019-04-22T17:15:57.318Z,1010.50
2019-04-22T17:16:54.904Z,1010.52
2019-04-22T17:17:54.951Z,1010.59
2019-04-22T17:18:56.319Z,1010.49
2019-04-22T17:19:55.521Z,1010.68
2019-04-22T17:20:55.018Z,1010.23
2019-04-22T17:21:55.274Z,1010.51
2019-04-22T17:22:55.613Z,1010.42
2019-04-22T17:23:54.214Z,1010.38
2019-04-22T17:24:54.117Z,1010.41
2019-04-22T17:25:54.445Z,1010.45
2019-04-22T17:26:54.721Z,1010.46
2019-04-22T17:27:55.156Z,1010.45
2019-04-22T17:28:53.719Z,1010.50
2019-04-22T17:29:54.644Z,1010.47
2019-04-22T17:30:53.977Z,1010.44
2019-04-22T17:32:00.391Z,1010.44
2019-04-22T17:32:54.575Z,1010.49
2019-04-22T17:33:53.225Z,1010.55
2019-04-22T17:34:53.850Z,1010.57
2019-04-22T17:35:53.028Z,1010.59
2019-04-22T17:36:53.229Z,1010.54
2019-04-22T17:38:04.206Z,1010.63
2019-04-22T17:39:00.811Z,1010.54
2019-04-22T17:40:13.221Z,1010.52
2019-04-22T17:41:10.504Z,1010.56
2019-04-22T17:42:11.143Z,1010.46
2019-04-22T17:43:23.887Z,1010.59
2019-04-22T17:44:19.135Z,1010.58
2019-04-22T17:45:16.834Z,1010.58
2019-04-22T17:46:10.901Z,1010.55
2019-04-22T17:47:04.955Z,1010.55
2019-04-22T17:48:20.274Z,1010.58
2019-04-22T17:49:18.827Z,1010.64
2019-04-22T17:50:14.539Z,1010.58
2019-04-22T17:51:22.628Z,1010.54
2019-04-22T17:52:17.574Z,1010.53
2019-04-22T17:53:23.073Z,1010.56
2019-04-22T17:54:15.167Z,1010.58
2019-04-22T17:55:10.084Z,1010.54
2019-04-22T17:56:14.051Z,1010.51
2019-04-22T17:57:09.501Z,1010.46
2019-04-22T17:58:15.997Z,1010.52
2019-04-22T17:59:15.588Z,1010.62
2019-04-22T18:00:06.171Z,1010.51
2019-04-22T18:01:09.367Z,1010.58
2019-04-22T18:02:08.188Z,1010.57
2019-04-22T18:03:03.108Z,1010.48
2019-04-22T18:03:56.592Z,1010.54
2019-04-22T18:04:56.192Z,1010.54
2019-04-22T18:05:56.347Z,1010.52
2019-04-22T18:07:21.642Z,1010.52
2019-04-22T18:08:15.466Z,1010.48
2019-04-22T18:09:05.321Z,1010.52
2019-04-22T18:10:29.991Z,1010.46
2019-04-22T18:11:15.764Z,1010.51
